Time;durP1;ratioP1;P1;durP2;ratioP2;P2;SDS_P1;SDS_P2;PMS_P1;PMS_P2;Temp;Humidity;BMP_temperature;BMP_pressure;BME280_temperature;BME280_humidity;BME280_pressure;Samples;Min_cycle;Max_cycle;Signal;HPM_P1;HPM_P2
2022/04/22 00:00:08;;;;;;;12.13;11.07;;;;;;;;;;5006915;28;20974;-92
2022/04/22 00:02:36;;;;;;;9.50;8.70;;;;;;;;;;5013157;28;20446;-91
2022/04/22 00:05:02;;;;;;;11.27;10.17;;;;;;;;;;4995945;28;20502;-90
2022/04/22 00:07:28;;;;;;;10.80;9.90;;;;;;;;;;5014928;28;20492;-90
2022/04/22 00:09:55;;;;;;;10.10;9.20;;;;;;;;;;5014078;28;20407;-92
2022/04/22 00:12:21;;;;;;;10.37;9.53;;;;;;;;;;5035819;28;20971;-93
2022/04/22 00:14:59;;;;;;;10.87;10.07;;;;;;;;;;4978662;28;20436;-90
2022/04/22 00:17:32;;;;;;;9.83;9.23;;;;;;;;;;4995307;28;20427;-92
2022/04/22 00:19:58;;;;;;;10.07;9.10;;;;;;;;;;4996035;28;20416;-92
2022/04/22 00:22:24;;;;;;;9.83;9.13;;;;;;;;;;5005239;28;20474;-92
2022/04/22 00:24:50;;;;;;;10.10;9.23;;;;;;;;;;5004520;28;20471;-90
2022/04/22 00:27:16;;;;;;;11.10;10.30;;;;;;;;;;5005198;28;21027;-93
2022/04/22 00:29:42;;;;;;;10.20;9.50;;;;;;;;;;5008082;28;20431;-90
2022/04/22 00:32:11;;;;;;;10.10;9.30;;;;;;;;;;4996498;28;20795;-91
2022/04/22 00:34:37;;;;;;;10.40;9.50;;;;;;;;;;4989365;28;20449;-91
2022/04/22 00:37:07;;;;;;;13.20;9.67;;;;;;;;;;5010243;28;20439;-91
2022/04/22 00:39:36;;;;;;;11.43;10.27;;;;;;;;;;4994761;28;20499;-93
2022/04/22 00:42:10;;;;;;;10.20;9.50;;;;;;;;;;5005980;28;20475;-92
2022/04/22 00:44:36;;;;;;;9.57;8.87;;;;;;;;;;4995049;28;20448;-91
2022/04/22 00:47:06;;;;;;;11.07;8.97;;;;;;;;;;5020059;28;20504;-92
2022/04/22 00:49:32;;;;;;;9.43;8.53;;;;;;;;;;5009993;28;20502;-91
2022/04/22 00:51:58;;;;;;;9.30;8.50;;;;;;;;;;5026252;28;20436;-92
2022/04/22 00:54:24;;;;;;;9.43;8.70;;;;;;;;;;5007351;28;20443;-90
2022/04/22 00:56:51;;;;;;;9.90;8.57;;;;;;;;;;5002333;28;20441;-92
2022/04/22 00:59:17;;;;;;;9.97;9.10;;;;;;;;;;5002736;28;20511;-91
2022/04/22 01:01:52;;;;;;;9.93;9.23;;;;;;;;;;5026355;28;20482;-92
2022/04/22 01:09:47;;;;;;;9.97;9.00;;;;;;;;;;4994438;28;20459;-92
2022/04/22 01:12:17;;;;;;;10.70;9.70;;;;;;;;;;5023655;28;20431;-91
2022/04/22 01:14:43;;;;;;;9.97;9.17;;;;;;;;;;4982611;28;20540;-90
2022/04/22 01:17:12;;;;;;;9.83;9.10;;;;;;;;;;4996466;28;20468;-92
2022/04/22 01:19:38;;;;;;;10.83;9.83;;;;;;;;;;5001169;28;20424;-92
2022/04/22 01:22:05;;;;;;;9.87;9.03;;;;;;;;;;5009708;28;20618;-92
2022/04/22 01:24:31;;;;;;;8.67;8.00;;;;;;;;;;4993126;28;20563;-91
2022/04/22 01:26:58;;;;;;;10.50;9.67;;;;;;;;;;5023864;28;20427;-91
2022/04/22 01:29:24;;;;;;;9.13;8.43;;;;;;;;;;4986574;28;20435;-91
2022/04/22 01:31:50;;;;;;;10.97;9.97;;;;;;;;;;5004252;28;20480;-91
2022/04/22 01:34:16;;;;;;;10.90;9.80;;;;;;;;;;4987991;28;20439;-91
2022/04/22 01:36:42;;;;;;;10.33;9.43;;;;;;;;;;4997262;28;20703;-91
2022/04/22 01:39:08;;;;;;;11.07;10.10;;;;;;;;;;5012704;28;20434;-91
2022/04/22 01:41:34;;;;;;;11.53;10.30;;;;;;;;;;4984958;28;20533;-91
2022/04/22 01:44:00;;;;;;;10.80;9.90;;;;;;;;;;4989658;28;20451;-92
2022/04/22 01:46:27;;;;;;;11.10;10.00;;;;;;;;;;5015318;28;20447;-92
2022/04/22 01:48:57;;;;;;;11.07;9.97;;;;;;;;;;4986886;28;20447;-91
2022/04/22 01:51:23;;;;;;;11.47;10.33;;;;;;;;;;5015223;28;20461;-91
2022/04/22 01:53:52;;;;;;;11.53;10.63;;;;;;;;;;5010740;28;20859;-93
2022/04/22 01:56:19;;;;;;;11.73;10.53;;;;;;;;;;5014994;28;20424;-92
2022/04/22 01:58:45;;;;;;;11.43;10.27;;;;;;;;;;5012870;28;20438;-91
2022/04/22 02:01:11;;;;;;;11.93;10.80;;;;;;;;;;4998134;28;21044;-91
2022/04/22 02:03:37;;;;;;;11.73;10.53;;;;;;;;;;5009973;28;20956;-92
2022/04/22 02:06:06;;;;;;;12.70;11.60;;;;;;;;;;5026625;28;20442;-92
2022/04/22 02:08:32;;;;;;;10.97;9.90;;;;;;;;;;5012264;28;20560;-92
2022/04/22 02:11:02;;;;;;;13.43;11.03;;;;;;;;;;4983158;28;20796;-93
2022/04/22 02:13:28;;;;;;;12.23;11.03;;;;;;;;;;5001857;28;20427;-92
2022/04/22 02:15:57;;;;;;;13.30;11.57;;;;;;;;;;5011445;28;20423;-91
2022/04/22 02:18:23;;;;;;;13.70;11.97;;;;;;;;;;5007958;28;20438;-93
2022/04/22 02:20:53;;;;;;;12.10;11.00;;;;;;;;;;5026775;28;20481;-91
2022/04/22 02:23:19;;;;;;;16.77;12.37;;;;;;;;;;5018628;28;20458;-91
2022/04/22 02:25:45;;;;;;;12.80;11.40;;;;;;;;;;5001528;28;20416;-91
2022/04/22 02:30:57;;;;;;;12.97;11.80;;;;;;;;;;4993647;28;20444;-91
2022/04/22 02:33:26;;;;;;;12.57;11.27;;;;;;;;;;5018807;28;20467;-91
2022/04/22 02:35:53;;;;;;;15.97;12.97;;;;;;;;;;4999497;28;20442;-91
2022/04/22 02:38:19;;;;;;;15.20;11.73;;;;;;;;;;5025200;28;20440;-91
2022/04/22 02:46:14;;;;;;;13.40;12.10;;;;;;;;;;5009519;28;20716;-91
2022/04/22 02:48:40;;;;;;;14.00;12.60;;;;;;;;;;5020771;28;20430;-93
2022/04/22 02:51:06;;;;;;;14.63;13.10;;;;;;;;;;5021256;28;20413;-92
2022/04/22 02:53:35;;;;;;;18.70;14.07;;;;;;;;;;5018707;28;20439;-92
2022/04/22 02:56:08;;;;;;;16.57;13.13;;;;;;;;;;5021171;28;20435;-92
2022/04/22 02:58:34;;;;;;;17.30;13.47;;;;;;;;;;5001116;28;20446;-91
2022/04/22 03:01:02;;;;;;;15.80;13.30;;;;;;;;;;4997521;28;20475;-93
2022/04/22 03:03:30;;;;;;;15.80;14.20;;;;;;;;;;5028535;28;20584;-91
2022/04/22 03:05:58;;;;;;;17.03;14.20;;;;;;;;;;4990440;28;20466;-91
2022/04/22 03:08:24;;;;;;;15.57;13.73;;;;;;;;;;5019355;28;20894;-92
2022/04/22 03:10:51;;;;;;;14.33;12.83;;;;;;;;;;5026547;28;20423;-93
2022/04/22 03:13:17;;;;;;;16.33;13.87;;;;;;;;;;5022259;28;20507;-93
2022/04/22 03:15:43;;;;;;;15.77;13.80;;;;;;;;;;5021759;28;20427;-91
2022/04/22 03:18:10;;;;;;;17.13;14.43;;;;;;;;;;5014954;28;20472;-90
2022/04/22 03:20:36;;;;;;;17.30;13.90;;;;;;;;;;4998619;28;20459;-90
2022/04/22 03:23:02;;;;;;;17.80;14.50;;;;;;;;;;5016939;28;20434;-90
2022/04/22 03:25:28;;;;;;;15.67;13.20;;;;;;;;;;4998172;28;20514;-91
2022/04/22 03:27:55;;;;;;;16.27;13.87;;;;;;;;;;5006502;28;20454;-91
2022/04/22 03:30:21;;;;;;;19.63;15.17;;;;;;;;;;5012577;28;20475;-91
2022/04/22 03:32:47;;;;;;;16.23;14.53;;;;;;;;;;5007508;28;21446;-90
2022/04/22 03:35:15;;;;;;;17.57;13.13;;;;;;;;;;4995344;28;20407;-89
2022/04/22 03:37:42;;;;;;;15.43;13.93;;;;;;;;;;5022052;28;20496;-89
2022/04/22 03:40:10;;;;;;;18.53;13.97;;;;;;;;;;5036140;28;20419;-89
2022/04/22 03:42:36;;;;;;;19.13;15.33;;;;;;;;;;5009469;28;20482;-90
2022/04/22 03:45:02;;;;;;;17.03;15.10;;;;;;;;;;5010596;28;20432;-89
2022/04/22 03:47:29;;;;;;;17.23;13.77;;;;;;;;;;5005210;28;20934;-89
2022/04/22 03:49:55;;;;;;;16.50;14.40;;;;;;;;;;5043174;28;20809;-89
2022/04/22 03:52:21;;;;;;;22.67;15.80;;;;;;;;;;5007173;28;20480;-90
2022/04/22 03:54:47;;;;;;;21.50;17.53;;;;;;;;;;5046393;28;20579;-90
2022/04/22 03:59:57;;;;;;;18.50;15.97;;;;;;;;;;5003335;28;20436;-91
2022/04/22 04:02:24;;;;;;;18.67;16.63;;;;;;;;;;5025784;28;20489;-84
2022/04/22 04:04:50;;;;;;;21.20;15.13;;;;;;;;;;5025159;28;20501;-90
2022/04/22 04:07:17;;;;;;;18.93;15.17;;;;;;;;;;4988223;28;20444;-91
2022/04/22 04:17:57;;;;;;;17.80;15.63;;;;;;;;;;5016949;28;20480;-91
2022/04/22 04:23:17;;;;;;;23.37;16.57;;;;;;;;;;5023339;28;20457;-90
2022/04/22 04:25:50;;;;;;;21.23;15.83;;;;;;;;;;5047548;28;20407;-90
2022/04/22 04:28:17;;;;;;;23.27;16.80;;;;;;;;;;5022923;28;20492;-90
2022/04/22 04:30:43;;;;;;;17.60;15.17;;;;;;;;;;5038900;28;20537;-89
2022/04/22 04:33:10;;;;;;;20.80;16.50;;;;;;;;;;5028149;28;20430;-91
2022/04/22 04:35:38;;;;;;;20.63;15.90;;;;;;;;;;5009794;28;20454;-90
2022/04/22 04:38:05;;;;;;;20.40;16.60;;;;;;;;;;5025532;28;20459;-86
2022/04/22 04:40:32;;;;;;;24.67;16.40;;;;;;;;;;5001928;28;20432;-90
2022/04/22 04:43:00;;;;;;;24.10;18.57;;;;;;;;;;5024054;28;20449;-91
2022/04/22 04:45:27;;;;;;;22.17;17.67;;;;;;;;;;5010528;28;20522;-91
2022/04/22 04:47:53;;;;;;;21.30;16.33;;;;;;;;;;5010457;28;20519;-91
2022/04/22 04:50:19;;;;;;;20.67;16.87;;;;;;;;;;5018142;28;20430;-90
2022/04/22 04:52:45;;;;;;;22.67;18.70;;;;;;;;;;5033584;28;20430;-90
2022/04/22 04:55:15;;;;;;;26.03;19.27;;;;;;;;;;5016251;28;20519;-91
2022/04/22 04:57:42;;;;;;;21.67;17.50;;;;;;;;;;5000066;28;20439;-88
2022/04/22 05:00:10;;;;;;;20.17;16.80;;;;;;;;;;4997612;28;20519;-91
2022/04/22 05:02:36;;;;;;;20.07;17.47;;;;;;;;;;5007488;28;20778;-90
2022/04/22 05:05:05;;;;;;;35.33;18.00;;;;;;;;;;5021712;28;20423;-91
2022/04/22 05:07:30;;;;;;;22.00;17.77;;;;;;;;;;5042923;28;20446;-90
2022/04/22 05:09:57;;;;;;;23.90;18.07;;;;;;;;;;4999499;28;20443;-89
2022/04/22 05:12:23;;;;;;;19.47;17.40;;;;;;;;;;5008999;28;20474;-90
2022/04/22 05:14:52;;;;;;;21.77;17.10;;;;;;;;;;5026019;28;20445;-89
2022/04/22 05:17:18;;;;;;;21.67;17.80;;;;;;;;;;5018186;28;20999;-89
2022/04/22 05:19:44;;;;;;;23.63;17.93;;;;;;;;;;4996485;28;20429;-89
2022/04/22 05:22:10;;;;;;;26.60;19.00;;;;;;;;;;5029636;28;20489;-90
2022/04/22 05:24:37;;;;;;;24.60;18.77;;;;;;;;;;5005126;28;20468;-90
2022/04/22 05:27:04;;;;;;;21.70;17.53;;;;;;;;;;5008559;28;20439;-89
2022/04/22 05:34:59;;;;;;;22.70;20.33;;;;;;;;;;5018987;28;20451;-87
2022/04/22 05:37:25;;;;;;;76.83;26.90;;;;;;;;;;5045124;28;20422;-91
2022/04/22 05:39:52;;;;;;;27.43;19.53;;;;;;;;;;5027126;28;20565;-89
2022/04/22 05:42:20;;;;;;;29.13;21.83;;;;;;;;;;5021417;28;20487;-90
2022/04/22 05:44:46;;;;;;;24.77;19.90;;;;;;;;;;5003823;28;20462;-91
2022/04/22 05:47:12;;;;;;;41.33;22.17;;;;;;;;;;5020996;28;20435;-90
2022/04/22 05:49:39;;;;;;;24.17;19.00;;;;;;;;;;5008999;28;20487;-91
2022/04/22 05:52:05;;;;;;;22.60;19.07;;;;;;;;;;5014554;28;20412;-92
2022/04/22 05:54:34;;;;;;;22.67;20.20;;;;;;;;;;5049622;28;20468;-92
2022/04/22 05:57:01;;;;;;;22.43;20.00;;;;;;;;;;4321500;28;10000520;-92
2022/04/22 05:59:27;;;;;;;26.67;21.27;;;;;;;;;;5016835;28;20495;-90
2022/04/22 06:01:53;;;;;;;22.30;20.00;;;;;;;;;;5028646;28;20505;-92
2022/04/22 06:04:19;;;;;;;24.43;20.87;;;;;;;;;;5016391;28;20476;-92
2022/04/22 06:06:51;;;;;;;25.23;21.40;;;;;;;;;;4999359;28;20471;-91
2022/04/22 06:12:03;;;;;;;20.93;18.70;;;;;;;;;;5018533;28;20454;-90
2022/04/22 06:14:35;;;;;;;25.53;21.10;;;;;;;;;;5008453;28;20498;-91
2022/04/22 06:17:01;;;;;;;24.67;20.37;;;;;;;;;;4996485;28;20885;-92
2022/04/22 06:19:27;;;;;;;21.10;18.77;;;;;;;;;;5000079;28;20451;-92
2022/04/22 06:21:54;;;;;;;23.17;20.73;;;;;;;;;;4985696;28;20471;-91
2022/04/22 06:24:20;;;;;;;23.00;20.70;;;;;;;;;;5015613;28;20483;-91
2022/04/22 06:26:46;;;;;;;31.60;21.70;;;;;;;;;;4998567;28;20443;-94
2022/04/22 06:29:12;;;;;;;21.73;19.47;;;;;;;;;;5010018;28;20445;-87
2022/04/22 06:31:38;;;;;;;24.10;20.10;;;;;;;;;;5018679;28;20447;-93
2022/04/22 06:34:06;;;;;;;22.00;19.70;;;;;;;;;;5011730;28;20431;-92
2022/04/22 06:36:32;;;;;;;21.10;18.90;;;;;;;;;;5009946;28;20459;-92
2022/04/22 06:38:59;;;;;;;21.90;18.07;;;;;;;;;;5001462;28;20665;-92
2022/04/22 06:46:56;;;;;;;18.50;16.80;;;;;;;;;;5011427;28;20462;-91
2022/04/22 06:49:23;;;;;;;19.40;17.50;;;;;;;;;;4997518;28;20444;-91
2022/04/22 06:51:51;;;;;;;18.80;16.80;;;;;;;;;;4984346;28;20436;-88
2022/04/22 06:54:18;;;;;;;19.40;17.40;;;;;;;;;;4980627;28;21005;-92
2022/04/22 06:56:45;;;;;;;20.07;16.73;;;;;;;;;;5015146;28;20454;-89
2022/04/22 06:59:19;;;;;;;22.63;16.70;;;;;;;;;;5053119;28;20457;-90
2022/04/22 07:01:45;;;;;;;17.10;15.60;;;;;;;;;;5009829;28;20517;-90
2022/04/22 07:04:11;;;;;;;18.20;16.40;;;;;;;;;;5024408;28;20444;-91
2022/04/22 07:06:41;;;;;;;17.77;15.80;;;;;;;;;;5000195;28;20443;-89
2022/04/22 07:09:07;;;;;;;15.87;14.30;;;;;;;;;;5036457;28;20500;-90
2022/04/22 07:11:38;;;;;;;14.20;13.00;;;;;;;;;;4987458;28;20440;-93
2022/04/22 07:14:07;;;;;;;15.10;13.73;;;;;;;;;;5004063;28;20416;-91
2022/04/22 07:16:33;;;;;;;14.00;12.93;;;;;;;;;;5017982;28;21060;-91
2022/04/22 07:19:00;;;;;;;14.60;13.40;;;;;;;;;;5011882;28;20535;-91
2022/04/22 07:21:26;;;;;;;14.83;13.50;;;;;;;;;;5000025;28;20471;-90
2022/04/22 07:23:53;;;;;;;13.87;12.63;;;;;;;;;;4999192;28;20779;-93
2022/04/22 07:26:20;;;;;;;13.80;12.70;;;;;;;;;;4667200;28;9999977;-89
2022/04/22 07:28:47;;;;;;;12.27;11.23;;;;;;;;;;5010299;28;20279;-89
2022/04/22 07:31:15;;;;;;;14.03;12.93;;;;;;;;;;4993973;28;20462;-86
2022/04/22 07:33:41;;;;;;;12.77;11.77;;;;;;;;;;4992124;28;20435;-87
2022/04/22 07:36:07;;;;;;;14.13;12.70;;;;;;;;;;5005556;28;20447;-88
2022/04/22 07:38:36;;;;;;;17.33;15.83;;;;;;;;;;4994592;28;20432;-84
2022/04/22 07:41:02;;;;;;;13.20;12.10;;;;;;;;;;5012203;28;20562;-86
2022/04/22 07:48:58;;;;;;;12.57;11.43;;;;;;;;;;4993194;28;20408;-86
2022/04/22 07:51:32;;;;;;;11.83;10.83;;;;;;;;;;5011779;28;20430;-89
2022/04/22 07:53:58;;;;;;;13.33;12.33;;;;;;;;;;5023906;28;21202;-87
2022/04/22 07:56:24;;;;;;;11.20;10.47;;;;;;;;;;5024430;28;20423;-87
2022/04/22 07:58:58;;;;;;;10.90;10.10;;;;;;;;;;5038348;28;20435;-88
2022/04/22 08:01:31;;;;;;;11.37;10.63;;;;;;;;;;5019032;28;20490;-86
2022/04/22 08:03:59;;;;;;;11.40;10.50;;;;;;;;;;5007869;28;20434;-87
2022/04/22 08:06:25;;;;;;;11.60;10.70;;;;;;;;;;5032506;28;20406;-86
2022/04/22 08:08:51;;;;;;;11.47;10.67;;;;;;;;;;4994685;28;20810;-87
2022/04/22 08:11:19;;;;;;;12.13;11.03;;;;;;;;;;5013664;28;20404;-87
2022/04/22 08:13:45;;;;;;;12.83;11.60;;;;;;;;;;4996735;28;20843;-87
2022/04/22 08:16:12;;;;;;;13.07;11.97;;;;;;;;;;5010622;28;20440;-87
2022/04/22 08:18:38;;;;;;;13.07;12.07;;;;;;;;;;4994896;28;20846;-88
2022/04/22 08:21:04;;;;;;;11.37;10.47;;;;;;;;;;5000264;28;20625;-87
2022/04/22 08:23:30;;;;;;;11.90;10.70;;;;;;;;;;5007726;28;20455;-87
2022/04/22 08:25:58;;;;;;;11.77;10.80;;;;;;;;;;4982711;28;20805;-86
2022/04/22 08:28:24;;;;;;;12.70;11.70;;;;;;;;;;5028541;28;20451;-87
2022/04/22 08:30:50;;;;;;;11.97;11.10;;;;;;;;;;5001901;28;20421;-87
2022/04/22 08:33:16;;;;;;;11.20;10.30;;;;;;;;;;5004783;28;20432;-84
2022/04/22 08:35:42;;;;;;;12.47;11.47;;;;;;;;;;5030624;28;20403;-88
2022/04/22 08:38:11;;;;;;;11.97;11.07;;;;;;;;;;4974456;28;20472;-86
2022/04/22 08:40:38;;;;;;;12.57;11.40;;;;;;;;;;4987603;28;20982;-87
2022/04/22 08:43:04;;;;;;;12.80;11.77;;;;;;;;;;4996905;28;20450;-86
2022/04/22 08:45:35;;;;;;;11.63;10.83;;;;;;;;;;5009350;28;20489;-87
2022/04/22 08:50:47;;;;;;;11.43;10.43;;;;;;;;;;4997132;28;20449;-87
2022/04/22 08:53:21;;;;;;;11.43;10.63;;;;;;;;;;4984815;28;20437;-86
2022/04/22 08:55:50;;;;;;;11.27;10.17;;;;;;;;;;5002284;28;20428;-86
2022/04/22 08:58:17;;;;;;;12.27;11.07;;;;;;;;;;5001545;28;20434;-90
2022/04/22 09:00:43;;;;;;;13.10;11.90;;;;;;;;;;5018040;28;20411;-93
2022/04/22 09:03:10;;;;;;;10.90;10.00;;;;;;;;;;5001664;28;20460;-92
2022/04/22 09:05:38;;;;;;;13.07;11.87;;;;;;;;;;5017536;28;20460;-91
2022/04/22 09:08:07;;;;;;;12.20;11.20;;;;;;;;;;5020841;28;20458;-90
2022/04/22 09:10:35;;;;;;;12.43;11.23;;;;;;;;;;4999274;28;20444;-91
2022/04/22 09:13:11;;;;;;;11.70;10.90;;;;;;;;;;5002998;28;20527;-93
2022/04/22 09:15:42;;;;;;;26.47;23.93;;;;;;;;;;5000315;28;20495;-93
2022/04/22 09:18:09;;;;;;;10.83;10.07;;;;;;;;;;5024279;28;20497;-94
2022/04/22 09:20:35;;;;;;;12.57;11.57;;;;;;;;;;5003640;28;20510;-93
2022/04/22 09:23:05;;;;;;;12.03;10.93;;;;;;;;;;5030728;23;20434;-82
2022/04/22 09:25:46;;;;;;;12.77;11.70;;;;;;;;;;4992127;28;20522;-79
2022/04/22 09:28:18;;;;;;;12.50;11.60;;;;;;;;;;4976591;28;20444;-79
2022/04/22 09:30:58;;;;;;;12.90;11.90;;;;;;;;;;4978460;28;20523;-81
2022/04/22 09:33:26;;;;;;;13.63;12.20;;;;;;;;;;4976222;28;20753;-83
2022/04/22 09:42:55;;;;;;;13.90;12.80;;;;;;;;;;4965288;28;20638;-81
2022/04/22 09:45:03;;;;;;;15.10;14.00;;;;;;;;;;4962339;28;20451;-83
2022/04/22 09:47:32;;;;;;;15.63;14.40;;;;;;;;;;4986266;28;20455;-80
2022/04/22 09:50:11;;;;;;;15.80;14.50;;;;;;;;;;4985850;28;20534;-77
2022/04/22 09:52:47;;;;;;;14.80;13.60;;;;;;;;;;4956429;28;20520;-81
2022/04/22 09:55:15;;;;;;;15.20;14.00;;;;;;;;;;4965977;28;20828;-81
2022/04/22 09:57:55;;;;;;;14.47;13.17;;;;;;;;;;4961421;28;20451;-81
2022/04/22 10:00:35;;;;;;;15.87;14.60;;;;;;;;;;4961720;28;20437;-79
2022/04/22 10:03:07;;;;;;;16.50;15.10;;;;;;;;;;4962754;28;20470;-80
2022/04/22 10:05:56;;;;;;;15.40;14.10;;;;;;;;;;4970874;28;20420;-81
2022/04/22 10:08:28;;;;;;;14.90;13.87;;;;;;;;;;4976722;28;20440;-82
2022/04/22 10:11:02;;;;;;;14.50;13.20;;;;;;;;;;4943962;28;20495;-78
2022/04/22 10:13:47;;;;;;;13.53;12.43;;;;;;;;;;4963611;28;20847;-80
2022/04/22 10:16:14;;;;;;;14.17;13.17;;;;;;;;;;4967452;28;20433;-81
2022/04/22 10:18:42;;;;;;;13.87;12.77;;;;;;;;;;4962784;28;20436;-80
2022/04/22 10:21:21;;;;;;;11.30;10.50;;;;;;;;;;4986100;28;20479;-82
2022/04/22 10:24:02;;;;;;;12.60;11.73;;;;;;;;;;4990062;28;20484;-80
2022/04/22 10:26:29;;;;;;;13.83;12.67;;;;;;;;;;4951372;28;20433;-81
2022/04/22 10:28:59;;;;;;;12.20;11.43;;;;;;;;;;4969772;28;20913;-81
2022/04/22 10:31:26;;;;;;;12.70;11.90;;;;;;;;;;4954080;28;20410;-81
2022/04/22 10:33:58;;;;;;;12.90;12.00;;;;;;;;;;4970686;28;20425;-81
2022/04/22 10:39:41;;;;;;;10.40;9.80;;;;;;;;;;4970685;28;20413;-84
2022/04/22 10:42:34;;;;;;;9.37;8.83;;;;;;;;;;4964807;28;20975;-81
2022/04/22 10:48:30;;;;;;;11.87;11.07;;;21.90;60.10;;;;;;4969176;28;20520;-84
2022/04/22 10:50:59;;;;;;;12.40;11.30;;;20.30;58.90;;;;;;4887771;29;20449;-81
2022/04/22 10:53:49;;;;;;;9.87;9.20;;;19.00;60.00;;;;;;4924907;29;20898;-82
2022/04/22 10:56:33;;;;;;;11.23;10.20;;;18.60;61.40;;;;;;4951720;28;20938;-81
2022/04/22 10:59:21;;;;;;;9.80;9.20;;;18.90;60.80;;;;;;4951848;28;20477;-83
2022/04/22 11:01:58;;;;;;;9.80;8.87;;;19.10;59.80;;;;;;4954659;28;20473;-84
2022/04/22 11:04:30;;;;;;;9.53;8.80;;;19.40;61.30;;;;;;4945946;29;20512;-83
2022/04/22 11:06:58;;;;;;;8.87;8.37;;;19.70;59.30;;;;;;4951183;28;20430;-81
2022/04/22 11:10:41;;;;;;;8.60;8.03;;;19.30;58.50;;;;;;4945896;29;20537;-77
2022/04/22 11:13:42;;;;;;;8.13;7.60;;;19.00;58.80;;;;;;4890500;29;20421;-82
2022/04/22 11:16:20;;;;;;;9.07;8.30;;;17.90;57.60;;;;;;4943486;29;20415;-84
2022/04/22 11:19:39;;;;;;;8.60;8.00;;;18.30;59.90;;;;;;4934055;28;20804;-82
2022/04/22 11:22:07;;;;;;;9.40;8.47;;;19.40;59.30;;;;;;4892280;28;20513;-78
2022/04/22 11:24:33;;;;;;;8.67;8.17;;;18.50;63.30;;;;;;4981350;28;20471;-79
2022/04/22 11:27:28;;;;;;;8.83;8.33;;;20.40;66.60;;;;;;4954569;28;20433;-80
2022/04/22 11:30:03;;;;;;;9.20;8.50;;;19.40;62.30;;;;;;4958622;28;20197;-80
2022/04/22 11:32:47;;;;;;;10.07;8.60;;;20.80;61.30;;;;;;4946964;29;20449;-84
2022/04/22 11:35:42;;;;;;;8.97;8.40;;;18.60;58.40;;;;;;4978280;28;20559;-86
2022/04/22 11:38:22;;;;;;;11.63;10.93;;;20.00;59.00;;;;;;4954006;28;20452;-88
2022/04/22 11:40:51;;;;;;;12.47;11.57;;;18.00;57.80;;;;;;4955865;28;20456;-80
2022/04/22 11:43:18;;;;;;;13.20;11.63;;;19.00;59.90;;;;;;4986441;28;20451;-84
2022/04/22 11:45:48;;;;;;;14.20;12.90;;;20.20;64.40;;;;;;5020514;23;20487;-89
2022/04/22 11:48:22;;;;;;;10.60;9.80;;;22.00;66.80;;;;;;4996751;28;20431;-89
2022/04/22 11:50:50;;;;;;;11.63;10.63;;;20.60;65.90;;;;;;5028567;28;20442;-88
2022/04/22 11:53:26;;;;;;;11.70;10.90;;;23.50;67.10;;;;;;5033489;28;20447;-89
2022/04/22 11:55:52;;;;;;;15.93;14.67;;;19.90;63.00;;;;;;5012720;28;20487;-89
2022/04/22 11:58:20;;;;;;;12.63;11.30;;;20.40;61.90;;;;;;5032908;28;20437;-89
2022/04/22 12:06:24;;;;;;;10.97;10.27;;;24.70;59.10;;;;;;5031275;28;20391;-90
2022/04/22 12:08:54;;;;;;;11.97;11.17;;;24.40;54.70;;;;;;5044205;28;20541;-90
2022/04/22 12:11:26;;;;;;;12.77;11.37;;;23.90;52.00;;;;;;5034267;28;20484;-90
2022/04/22 12:13:54;;;;;;;12.20;11.40;;;23.20;51.40;;;;;;5029434;28;20442;-89
2022/04/22 12:16:26;;;;;;;12.50;11.40;;;21.70;52.10;;;;;;5048785;28;20457;-88
2022/04/22 12:18:56;;;;;;;11.63;10.83;;;20.60;53.60;;;;;;5043422;28;20868;-90
2022/04/22 12:21:35;;;;;;;10.47;9.57;;;22.50;52.80;;;;;;5061013;28;20865;-90
2022/04/22 12:24:04;;;;;;;11.83;10.83;;;21.90;52.40;;;;;;5061357;28;20480;-88
2022/04/22 12:26:34;;;;;;;11.20;10.13;;;21.40;54.40;;;;;;5050378;28;20546;-87
2022/04/22 12:29:16;;;;;;;10.18;9.57;;;22.90;54.90;;;;;;4703232;23;10001430;-79
2022/04/22 12:31:47;;;;;;;10.30;9.50;;;20.90;52.20;;;;;;5021666;28;20190;-76
2022/04/22 12:34:15;;;;;;;10.90;10.20;;;20.20;58.00;;;;;;5029956;28;20861;-78
2022/04/22 12:36:52;;;;;;;11.27;10.23;;;20.60;58.30;;;;;;5017057;28;20451;-80
2022/04/22 12:39:39;;;;;;;10.93;9.90;;;21.00;56.00;;;;;;5037720;28;20422;-77
2022/04/22 12:42:06;;;;;;;10.30;9.60;;;20.70;53.70;;;;;;5017770;28;21027;-77
2022/04/22 12:44:35;;;;;;;10.43;9.63;;;20.90;54.60;;;;;;5044144;28;21051;-77
2022/04/22 12:52:44;;;;;;;10.93;10.03;;;20.60;53.70;;;;;;5059933;28;20478;-79
2022/04/22 12:55:11;;;;;;;10.83;9.80;;;20.70;52.60;;;;;;5024628;28;20570;-79
2022/04/22 12:57:37;;;;;;;10.43;9.77;;;19.90;53.60;;;;;;5043819;28;20728;-79
2022/04/22 13:00:17;;;;;;;11.20;10.33;;;20.60;54.70;;;;;;5068018;28;20425;-80
2022/04/22 13:02:44;;;;;;;11.27;10.53;;;;;;;;;;5062192;28;20778;-81
2022/04/22 13:05:19;;;;;;;10.20;9.50;;;21.50;70.20;;;;;;5052451;28;20947;-79
2022/04/22 13:07:47;;;;;;;11.37;10.57;;;22.10;71.70;;;;;;5067782;28;20428;-81
2022/04/22 13:10:14;;;;;;;10.40;9.77;;;22.80;71.40;;;;;;5046479;28;20934;-81
2022/04/22 13:12:45;;;;;;;9.47;8.97;;;21.80;69.70;;;;;;5062658;28;20437;-83
2022/04/22 13:15:18;;;;;;;9.33;8.63;;;21.30;72.50;;;;;;5050316;28;20409;-82
2022/04/22 13:17:49;;;;;;;9.00;8.43;;;21.70;72.80;;;;;;5039430;28;21027;-82
2022/04/22 13:20:17;;;;;;;8.33;7.83;;;21.80;69.80;;;;;;5044435;28;20484;-80
2022/04/22 13:22:44;;;;;;;8.70;8.10;;;22.50;70.80;;;;;;5049907;28;20499;-82
2022/04/22 13:25:11;;;;;;;9.00;8.40;;;23.00;69.60;;;;;;5040025;28;20424;-77
2022/04/22 13:27:37;;;;;;;9.80;8.93;;;23.70;66.80;;;;;;5032579;28;20496;-79
2022/04/22 13:30:04;;;;;;;8.87;8.20;;;21.80;66.20;;;;;;5064538;28;20470;-79
2022/04/22 13:32:30;;;;;;;8.60;8.10;;;22.80;67.30;;;;;;5046785;28;20674;-79
2022/04/22 13:34:55;;;;;;;9.17;8.53;;;22.40;66.70;;;;;;5066507;28;20526;-78
2022/04/22 13:37:24;;;;;;;11.30;10.50;;;21.50;67.90;;;;;;5060758;28;20305;-78
2022/04/22 13:39:50;;;;;;;11.40;10.50;;;21.20;69.70;;;;;;5064870;28;20452;-76
2022/04/22 13:42:18;;;;;;;13.37;11.07;;;21.10;70.60;;;;;;5050363;28;20512;-80
2022/04/22 13:52:57;;;;;;;11.20;10.20;;;19.80;73.20;;;;;;5051930;28;20502;-79
2022/04/22 13:55:23;;;;;;;10.10;9.40;;;20.10;82.50;;;;;;5068416;28;20500;-80
2022/04/22 13:57:49;;;;;;;10.90;10.00;;;21.30;73.90;;;;;;5047169;28;20286;-81
2022/04/22 14:00:17;;;;;;;9.17;8.67;;;21.80;72.30;;;;;;5065408;28;20202;-79
2022/04/22 14:02:43;;;;;;;9.23;8.50;;;22.50;68.20;;;;;;5037318;28;20223;-80
2022/04/22 14:05:09;;;;;;;9.73;9.13;;;22.40;67.50;;;;;;5058063;28;20441;-80
2022/04/22 14:07:37;;;;;;;10.23;9.40;;;22.20;66.00;;;;;;5058535;28;20258;-82
2022/04/22 14:10:03;;;;;;;9.57;8.30;;;21.50;67.40;;;;;;5082503;28;20187;-81
2022/04/22 14:12:30;;;;;;;9.07;8.53;;;21.80;67.60;;;;;;5071258;28;20523;-80
2022/04/22 14:14:56;;;;;;;11.57;8.80;;;23.10;68.20;;;;;;5063907;28;20425;-83
2022/04/22 14:17:24;;;;;;;9.43;8.70;;;22.10;65.50;;;;;;5068910;28;20444;-83
2022/04/22 14:19:50;;;;;;;9.67;9.07;;;21.60;65.50;;;;;;5048200;28;20428;-80
2022/04/22 14:22:16;;;;;;;7.80;7.40;;;22.00;65.00;;;;;;5044311;28;20461;-82
2022/04/22 14:24:44;;;;;;;10.07;9.27;;;22.10;64.60;;;;;;5060172;28;20191;-81
2022/04/22 14:27:14;;;;;;;8.97;8.50;;;21.80;65.20;;;;;;5076751;28;20194;-80
2022/04/22 14:29:44;;;;;;;9.40;8.90;;;21.50;66.20;;;;;;5067152;28;20784;-81
2022/04/22 14:32:10;;;;;;;11.77;10.67;;;20.90;62.60;;;;;;5059474;28;20508;-82
2022/04/22 14:34:38;;;;;;;9.70;9.10;;;21.30;67.70;;;;;;5079444;28;20443;-83
2022/04/22 14:37:22;;;;;;;11.10;10.00;;;21.70;66.30;;;;;;5053654;28;20187;-85
2022/04/22 14:39:51;;;;;;;11.27;10.47;;;21.90;67.50;;;;;;5059674;28;20492;-84
2022/04/22 14:42:17;;;;;;;12.20;11.40;;;22.50;65.10;;;;;;5058058;28;20579;-78
2022/04/22 14:44:43;;;;;;;12.70;11.80;;;21.40;67.60;;;;;;5057499;28;20445;-78
2022/04/22 14:47:11;;;;;;;13.40;12.40;;;21.20;67.60;;;;;;5062820;28;20444;-77
2022/04/22 14:49:37;;;;;;;12.17;11.20;;;20.90;69.40;;;;;;5065429;28;20357;-77
2022/04/22 14:52:03;;;;;;;13.93;12.93;;;21.40;68.90;;;;;;5050737;28;20441;-79
2022/04/22 14:54:31;;;;;;;14.43;13.10;;;21.00;68.00;;;;;;5068363;28;20419;-76
2022/04/22 14:56:57;;;;;;;14.00;12.80;;;20.80;69.40;;;;;;5047211;28;20445;-79
2022/04/22 14:59:24;;;;;;;14.60;13.43;;;21.10;69.80;;;;;;5061403;28;20436;-78
2022/04/22 15:01:50;;;;;;;12.80;11.97;;;21.00;69.90;;;;;;5058466;28;20223;-79
2022/04/22 15:04:15;;;;;;;13.33;12.40;;;19.50;68.80;;;;;;5059591;28;20426;-78
2022/04/22 15:06:41;;;;;;;12.67;11.77;;;20.20;70.20;;;;;;5061454;28;20200;-77
2022/04/22 15:09:53;;;;;;;15.77;14.40;;;19.70;72.00;;;;;;5040659;28;20214;-79
2022/04/22 15:12:20;;;;;;;14.33;12.93;;;19.30;75.10;;;;;;5016499;28;20206;-78
2022/04/22 15:14:46;;;;;;;15.30;13.80;;;19.20;75.70;;;;;;5066967;28;20535;-79
2022/04/22 15:17:11;;;;;;;15.27;13.97;;;19.10;76.00;;;;;;5060474;28;21084;-79
2022/04/22 15:25:06;;;;;;;15.17;13.87;;;19.10;75.50;;;;;;5073041;28;20970;-80